Rheinfels — V2AI4 — position and weather

sailwx.info

Track history (hours):
 
Tides and Currents Weather Stations Pressure Air Temp Water Temp Dewpoint Dewpoint Depression Visibility Wind Speed Wind Dir Waves Ship Positions

Rheinfels

Last reported at 2015-Mar-04 05:15 UTC. Time now 2015-Mar-04 07:03 UTC.
Position N 38°48' E 002°26'.

Length 89 m; draft 5.4 m.

Type: Cargo ship. MMSI: 304010767.

Date/timePositionNaut miles runAvg speedWind from/ knotsBaromVisibWave heightAir tempDewpointWater temp
2015-Mar-04 05:15N 38°48' E 002°26'12510.7
2015-Mar-03 17:33N 37°39' E 000°14'1110.5
2015-Mar-03 16:33N 37°33' E 000°02'1110.6
2015-Mar-03 15:33N 37°27' W 000°09'1111.0
2015-Mar-03 14:33N 37°21' W 000°20'2110.7
2015-Mar-03 12:33N 37°09' W 000°43'1010.5
2015-Mar-03 11:33N 37°04' W 000°54'22110.4
2015-Mar-02 14:13N 35°55' W 005°15'3 4.3
2015-Mar-02 13:32N 35°54' W 005°18'0 0.0
2015-Mar-02 12:32N 35°54' W 005°18'0 0.0
2015-Mar-02 11:32N 35°54' W 005°18'0 0.0
2015-Mar-02 10:32N 35°54' W 005°18'0 0.0
2015-Mar-02 09:33N 35°54' W 005°18'1 0.8
2015-Mar-02 08:34N 35°55' W 005°18'4 3.5
2015-Mar-02 07:33N 35°56' W 005°22'221 9.1
2015-Mar-01 07:17N 37°12' W 009°41'73 9.3
2015-Feb-28 23:27N 38°23' W 009°60'9 9.7
2015-Feb-28 22:28N 38°33' W 010°02'  
2015-Feb-26 02:21N 39°04' W 009°43'9 7.7
2015-Feb-26 01:10N 38°55' W 009°42'5 7.7
2015-Feb-26 00:29N 38°50' W 009°42'7 7.5
2015-Feb-25 23:33N 38°43' W 009°41'6 6.0
2015-Feb-25 22:33N 38°38' W 009°37'8 8.0
2015-Feb-25 21:33N 38°38' W 009°26'8 8.3
2015-Feb-25 20:33N 38°41' W 009°17'9 9.1
2015-Feb-25 19:33N 38°40' W 009°05'1 0.7
2015-Feb-25 18:28N 38°40' W 009°04'0 0.0
2015-Feb-25 17:10N 38°40' W 009°04'0 0.0
2015-Feb-25 15:25N 38°40' W 009°04'0 0.0
2015-Feb-25 13:31N 38°40' W 009°04'0 0.0
2015-Feb-25 12:31N 38°40' W 009°04'0 0.0
2015-Feb-25 08:10N 38°40' W 009°04'0 0.0
2015-Feb-25 07:25N 38°40' W 009°04'0 0.0
2015-Feb-25 06:19N 38°40' W 009°04'0 0.0
2015-Feb-25 05:31N 38°40' W 009°04'0 0.0
2015-Feb-25 04:25N 38°40' W 009°04'0 0.0
2015-Feb-25 03:17N 38°40' W 009°04'2 2.8
2015-Feb-25 02:34N 38°41' W 009°07'7 7.4
2015-Feb-25 01:33N 38°41' W 009°16'7 7.1
2015-Feb-25 00:31N 38°36' W 009°23'6 6.0
2015-Feb-24 23:32N 38°33' W 009°30'6 5.8
2015-Feb-24 22:32N 38°36' W 009°36'6 5.6
2015-Feb-24 21:24N 38°41' W 009°43'20 9.1
2015-Feb-24 19:08N 39°01' W 009°45'  
Track history (hours):
 
Tides and Currents Weather Stations Pressure Air Temp Water Temp Dewpoint Dewpoint Depression Visibility Wind Speed Wind Dir Waves Ship Positions

Rheinfels

Last reported at 2015-Mar-04 05:15 UTC. Time now 2015-Mar-04 07:03 UTC.
Position N 38°48' E 002°26'.

Length 89 m; draft 5.4 m.

Type: Cargo ship. MMSI: 304010767.

Date/timePositionNaut miles runAvg speedWind from/ knotsBaromVisibWave heightAir tempDewpointWater temp
2015-Mar-04 05:15N 38°48' E 002°26'12510.7
2015-Mar-03 17:33N 37°39' E 000°14'1110.5
2015-Mar-03 16:33N 37°33' E 000°02'1110.6
2015-Mar-03 15:33N 37°27' W 000°09'1111.0
2015-Mar-03 14:33N 37°21' W 000°20'2110.7
2015-Mar-03 12:33N 37°09' W 000°43'1010.5
2015-Mar-03 11:33N 37°04' W 000°54'22110.4
2015-Mar-02 14:13N 35°55' W 005°15'3 4.3
2015-Mar-02 13:32N 35°54' W 005°18'0 0.0
2015-Mar-02 12:32N 35°54' W 005°18'0 0.0
2015-Mar-02 11:32N 35°54' W 005°18'0 0.0
2015-Mar-02 10:32N 35°54' W 005°18'0 0.0
2015-Mar-02 09:33N 35°54' W 005°18'1 0.8
2015-Mar-02 08:34N 35°55' W 005°18'4 3.5
2015-Mar-02 07:33N 35°56' W 005°22'221 9.1
2015-Mar-01 07:17N 37°12' W 009°41'73 9.3
2015-Feb-28 23:27N 38°23' W 009°60'9 9.7
2015-Feb-28 22:28N 38°33' W 010°02'  
2015-Feb-26 02:21N 39°04' W 009°43'9 7.7
2015-Feb-26 01:10N 38°55' W 009°42'5 7.7
2015-Feb-26 00:29N 38°50' W 009°42'7 7.5
2015-Feb-25 23:33N 38°43' W 009°41'6 6.0
2015-Feb-25 22:33N 38°38' W 009°37'8 8.0
2015-Feb-25 21:33N 38°38' W 009°26'8 8.3
2015-Feb-25 20:33N 38°41' W 009°17'9 9.1
2015-Feb-25 19:33N 38°40' W 009°05'1 0.7
2015-Feb-25 18:28N 38°40' W 009°04'0 0.0
2015-Feb-25 17:10N 38°40' W 009°04'0 0.0
2015-Feb-25 15:25N 38°40' W 009°04'0 0.0
2015-Feb-25 13:31N 38°40' W 009°04'0 0.0
2015-Feb-25 12:31N 38°40' W 009°04'0 0.0
2015-Feb-25 08:10N 38°40' W 009°04'0 0.0
2015-Feb-25 07:25N 38°40' W 009°04'0 0.0
2015-Feb-25 06:19N 38°40' W 009°04'0 0.0
2015-Feb-25 05:31N 38°40' W 009°04'0 0.0
2015-Feb-25 04:25N 38°40' W 009°04'0 0.0
2015-Feb-25 03:17N 38°40' W 009°04'2 2.8
2015-Feb-25 02:34N 38°41' W 009°07'7 7.4
2015-Feb-25 01:33N 38°41' W 009°16'7 7.1
2015-Feb-25 00:31N 38°36' W 009°23'6 6.0
2015-Feb-24 23:32N 38°33' W 009°30'6 5.8
2015-Feb-24 22:32N 38°36' W 009°36'6 5.6
2015-Feb-24 21:24N 38°41' W 009°43'20 9.1
2015-Feb-24 19:08N 39°01' W 009°45'  

Dump ship's entire track history